sensor_id;sensor_type;location;lat;lon;timestamp;pressure;altitude;pressure_sealevel;temperature;humidity
35489;BME280;21602;55.670;37.578;2023-01-29T00:01:06;99332.69;;;-1.24;88.69
35489;BME280;21602;55.670;37.578;2023-01-29T00:03:33;99336.81;;;-1.21;88.67
35489;BME280;21602;55.670;37.578;2023-01-29T00:05:59;99334.84;;;-1.27;88.05
35489;BME280;21602;55.670;37.578;2023-01-29T00:08:25;99339.88;;;-1.34;87.55
35489;BME280;21602;55.670;37.578;2023-01-29T00:10:51;99335.25;;;-1.40;87.64
35489;BME280;21602;55.670;37.578;2023-01-29T00:13:17;99337.38;;;-1.44;87.50
35489;BME280;21602;55.670;37.578;2023-01-29T00:15:53;99342.81;;;-1.37;87.59
35489;BME280;21602;55.670;37.578;2023-01-29T00:18:21;99341.84;;;-1.36;87.21
35489;BME280;21602;55.670;37.578;2023-01-29T00:20:47;99343.16;;;-1.32;87.13
35489;BME280;21602;55.670;37.578;2023-01-29T00:23:12;99325.81;;;-1.25;87.32
35489;BME280;21602;55.670;37.578;2023-01-29T00:25:40;99327.81;;;-1.19;86.91
35489;BME280;21602;55.670;37.578;2023-01-29T00:28:06;99326.50;;;-1.15;86.40
35489;BME280;21602;55.670;37.578;2023-01-29T00:30:32;99324.41;;;-1.11;86.35
35489;BME280;21602;55.670;37.578;2023-01-29T00:32:58;99326.72;;;-1.00;86.10
35489;BME280;21602;55.670;37.578;2023-01-29T00:35:26;99320.34;;;-0.97;85.73
35489;BME280;21602;55.670;37.578;2023-01-29T00:37:54;99321.34;;;-0.98;85.54
35489;BME280;21602;55.670;37.578;2023-01-29T00:40:19;99318.84;;;-1.00;85.54
35489;BME280;21602;55.670;37.578;2023-01-29T00:42:45;99317.56;;;-1.04;85.34
35489;BME280;21602;55.670;37.578;2023-01-29T00:45:30;99310.00;;;-1.07;85.53
35489;BME280;21602;55.670;37.578;2023-01-29T00:47:56;99308.03;;;-1.13;85.68
35489;BME280;21602;55.670;37.578;2023-01-29T00:50:22;99307.53;;;-1.17;85.53
35489;BME280;21602;55.670;37.578;2023-01-29T00:52:48;99309.81;;;-1.22;85.58
35489;BME280;21602;55.670;37.578;2023-01-29T00:55:16;99304.53;;;-1.30;85.35
35489;BME280;21602;55.670;37.578;2023-01-29T00:57:42;99308.31;;;-1.33;85.67
35489;BME280;21602;55.670;37.578;2023-01-29T01:00:10;99306.28;;;-1.39;85.46
35489;BME280;21602;55.670;37.578;2023-01-29T01:02:38;99301.88;;;-1.46;85.68
35489;BME280;21602;55.670;37.578;2023-01-29T01:05:23;99305.09;;;-1.52;86.06
35489;BME280;21602;55.670;37.578;2023-01-29T01:07:51;99305.28;;;-1.46;86.04
35489;BME280;21602;55.670;37.578;2023-01-29T01:10:22;99313.81;;;-1.44;85.85
35489;BME280;21602;55.670;37.578;2023-01-29T01:13:03;99315.91;;;-1.47;86.10
35489;BME280;21602;55.670;37.578;2023-01-29T01:15:39;99309.50;;;-1.61;86.71
35489;BME280;21602;55.670;37.578;2023-01-29T01:18:05;99306.31;;;-1.73;86.97
35489;BME280;21602;55.670;37.578;2023-01-29T01:20:33;99309.59;;;-1.71;87.20
35489;BME280;21602;55.670;37.578;2023-01-29T01:23:01;99315.66;;;-1.70;87.31
35489;BME280;21602;55.670;37.578;2023-01-29T01:25:27;99314.50;;;-1.68;87.51
35489;BME280;21602;55.670;37.578;2023-01-29T01:27:55;99313.69;;;-1.68;86.81
35489;BME280;21602;55.670;37.578;2023-01-29T01:30:22;99316.78;;;-1.73;85.48
35489;BME280;21602;55.670;37.578;2023-01-29T01:32:48;99319.03;;;-1.78;85.53
35489;BME280;21602;55.670;37.578;2023-01-29T01:35:15;99327.19;;;-1.81;85.20
35489;BME280;21602;55.670;37.578;2023-01-29T01:37:41;99317.34;;;-1.87;85.15
35489;BME280;21602;55.670;37.578;2023-01-29T01:40:18;99312.75;;;-1.93;84.63
35489;BME280;21602;55.670;37.578;2023-01-29T01:43:04;99310.59;;;-1.98;84.56
35489;BME280;21602;55.670;37.578;2023-01-29T01:45:33;99305.81;;;-2.02;83.96
35489;BME280;21602;55.670;37.578;2023-01-29T01:53:03;99301.59;;;-1.95;84.02
35489;BME280;21602;55.670;37.578;2023-01-29T01:55:32;99298.97;;;-1.95;83.64
35489;BME280;21602;55.670;37.578;2023-01-29T01:58:23;99296.06;;;-1.92;83.70
35489;BME280;21602;55.670;37.578;2023-01-29T02:00:52;99286.94;;;-1.88;83.56
35489;BME280;21602;55.670;37.578;2023-01-29T02:03:21;99289.72;;;-1.82;83.05
35489;BME280;21602;55.670;37.578;2023-01-29T02:06:07;99278.19;;;-1.71;82.84
35489;BME280;21602;55.670;37.578;2023-01-29T02:09:21;99274.31;;;-1.59;82.35
35489;BME280;21602;55.670;37.578;2023-01-29T02:12:08;99265.69;;;-1.51;81.32
35489;BME280;21602;55.670;37.578;2023-01-29T02:14:37;99269.75;;;-1.48;80.80
35489;BME280;21602;55.670;37.578;2023-01-29T02:17:24;99271.72;;;-1.50;80.37
35489;BME280;21602;55.670;37.578;2023-01-29T02:20:06;99261.56;;;-1.53;80.64
35489;BME280;21602;55.670;37.578;2023-01-29T02:33:47;99248.25;;;-1.68;79.32
35489;BME280;21602;55.670;37.578;2023-01-29T02:41:51;99229.91;;;-1.76;78.59
35489;BME280;21602;55.670;37.578;2023-01-29T02:44:33;99231.91;;;-1.70;78.68
35489;BME280;21602;55.670;37.578;2023-01-29T02:47:08;99233.09;;;-1.57;78.91
35489;BME280;21602;55.670;37.578;2023-01-29T02:52:24;99227.75;;;-1.39;78.26
35489;BME280;21602;55.670;37.578;2023-01-29T02:54:59;99224.47;;;-1.41;77.79
35489;BME280;21602;55.670;37.578;2023-01-29T02:57:33;99222.50;;;-1.47;76.98
35489;BME280;21602;55.670;37.578;2023-01-29T03:00:35;99200.41;;;-1.44;77.23
35489;BME280;21602;55.670;37.578;2023-01-29T03:03:41;99211.19;;;-1.47;77.36
35489;BME280;21602;55.670;37.578;2023-01-29T03:06:06;99207.25;;;-1.43;77.64
35489;BME280;21602;55.670;37.578;2023-01-29T03:08:49;99213.19;;;-1.41;77.71
35489;BME280;21602;55.670;37.578;2023-01-29T03:11:20;99203.69;;;-1.42;77.79
35489;BME280;21602;55.670;37.578;2023-01-29T03:13:57;99204.69;;;-1.35;77.58
35489;BME280;21602;55.670;37.578;2023-01-29T03:17:04;99194.72;;;-1.32;76.67
35489;BME280;21602;55.670;37.578;2023-01-29T03:19:42;99191.91;;;-1.30;76.38
35489;BME280;21602;55.670;37.578;2023-01-29T03:22:20;99181.41;;;-1.38;76.62
35489;BME280;21602;55.670;37.578;2023-01-29T03:24:54;99182.06;;;-1.44;76.73
35489;BME280;21602;55.670;37.578;2023-01-29T03:27:48;99181.09;;;-1.51;76.22
35489;BME280;21602;55.670;37.578;2023-01-29T03:30:52;99182.53;;;-1.57;76.59
35489;BME280;21602;55.670;37.578;2023-01-29T03:33:49;99162.56;;;-1.58;76.32
35489;BME280;21602;55.670;37.578;2023-01-29T03:36:23;99156.19;;;-1.56;76.60
35489;BME280;21602;55.670;37.578;2023-01-29T03:38:52;99160.63;;;-1.56;76.52
35489;BME280;21602;55.670;37.578;2023-01-29T03:49:11;99141.13;;;-1.62;76.50
35489;BME280;21602;55.670;37.578;2023-01-29T03:51:59;99141.31;;;-1.55;76.51
35489;BME280;21602;55.670;37.578;2023-01-29T03:57:30;99130.38;;;-1.42;76.36
35489;BME280;21602;55.670;37.578;2023-01-29T04:00:13;99125.47;;;-1.37;76.12
35489;BME280;21602;55.670;37.578;2023-01-29T04:03:17;99128.25;;;-1.31;76.09
35489;BME280;21602;55.670;37.578;2023-01-29T04:05:50;99118.59;;;-1.30;76.07
35489;BME280;21602;55.670;37.578;2023-01-29T04:08:26;99120.88;;;-1.35;75.87
35489;BME280;21602;55.670;37.578;2023-01-29T04:10:55;99115.31;;;-1.40;75.73
35489;BME280;21602;55.670;37.578;2023-01-29T04:13:23;99107.75;;;-1.68;75.81
35489;BME280;21602;55.670;37.578;2023-01-29T04:15:55;99106.44;;;-1.64;75.63
35489;BME280;21602;55.670;37.578;2023-01-29T04:18:46;99107.59;;;-1.58;75.87
35489;BME280;21602;55.670;37.578;2023-01-29T04:21:14;99102.38;;;-1.50;75.96
35489;BME280;21602;55.670;37.578;2023-01-29T04:23:40;99093.84;;;-1.52;75.78
35489;BME280;21602;55.670;37.578;2023-01-29T04:27:28;99100.25;;;-1.46;75.88
35489;BME280;21602;55.670;37.578;2023-01-29T04:29:39;99108.44;;;-1.49;76.06
35489;BME280;21602;55.670;37.578;2023-01-29T04:51:21;99083.88;;;-1.65;76.56
35489;BME280;21602;55.670;37.578;2023-01-29T04:59:40;99085.66;;;-1.73;76.93
35489;BME280;21602;55.670;37.578;2023-01-29T05:02:08;99087.47;;;-1.66;76.98
35489;BME280;21602;55.670;37.578;2023-01-29T05:04:37;99082.41;;;-1.59;76.71
35489;BME280;21602;55.670;37.578;2023-01-29T05:07:07;99083.53;;;-1.62;76.46
35489;BME280;21602;55.670;37.578;2023-01-29T05:09:35;99071.44;;;-1.63;76.60
35489;BME280;21602;55.670;37.578;2023-01-29T05:12:04;99075.38;;;-1.59;76.78
35489;BME280;21602;55.670;37.578;2023-01-29T05:14:33;99072.44;;;-1.56;76.62
35489;BME280;21602;55.670;37.578;2023-01-29T05:17:03;99080.91;;;-1.62;76.62
35489;BME280;21602;55.670;37.578;2023-01-29T05:19:30;99074.53;;;-1.67;76.85
35489;BME280;21602;55.670;37.578;2023-01-29T05:21:56;99080.44;;;-1.65;77.04
35489;BME280;21602;55.670;37.578;2023-01-29T05:24:24;99076.66;;;-1.63;76.91
35489;BME280;21602;55.670;37.578;2023-01-29T05:26:52;99082.25;;;-1.66;76.75
35489;BME280;21602;55.670;37.578;2023-01-29T05:29:39;99077.97;;;-1.67;77.07
35489;BME280;21602;55.670;37.578;2023-01-29T05:32:07;99075.84;;;-1.63;76.92
35489;BME280;21602;55.670;37.578;2023-01-29T05:34:33;99086.31;;;-1.63;76.89
35489;BME280;21602;55.670;37.578;2023-01-29T05:37:01;99088.94;;;-1.63;77.18
35489;BME280;21602;55.670;37.578;2023-01-29T05:39:27;99078.63;;;-1.65;76.98
35489;BME280;21602;55.670;37.578;2023-01-29T05:41:52;99081.75;;;-1.61;77.02
35489;BME280;21602;55.670;37.578;2023-01-29T05:44:18;99084.84;;;-1.58;76.99
35489;BME280;21602;55.670;37.578;2023-01-29T05:46:45;99075.53;;;-1.60;76.84
35489;BME280;21602;55.670;37.578;2023-01-29T05:49:11;99086.81;;;-1.68;77.09
35489;BME280;21602;55.670;37.578;2023-01-29T05:51:37;99090.56;;;-1.70;77.30
35489;BME280;21602;55.670;37.578;2023-01-29T05:54:03;99086.16;;;-1.70;77.65
35489;BME280;21602;55.670;37.578;2023-01-29T05:56:29;99080.44;;;-1.65;77.39
35489;BME280;21602;55.670;37.578;2023-01-29T05:58:55;99079.63;;;-1.66;77.46
35489;BME280;21602;55.670;37.578;2023-01-29T06:01:23;99078.63;;;-1.65;77.27
35489;BME280;21602;55.670;37.578;2023-01-29T06:03:48;99086.16;;;-1.70;77.57
35489;BME280;21602;55.670;37.578;2023-01-29T06:06:15;99091.06;;;-1.67;77.56
35489;BME280;21602;55.670;37.578;2023-01-29T06:08:41;99090.22;;;-1.67;77.52
35489;BME280;21602;55.670;37.578;2023-01-29T06:11:09;99088.13;;;-1.64;77.62
35489;BME280;21602;55.670;37.578;2023-01-29T06:13:35;99089.28;;;-1.58;77.65
35489;BME280;21602;55.670;37.578;2023-01-29T06:16:07;99092.88;;;-1.59;77.61
35489;BME280;21602;55.670;37.578;2023-01-29T06:18:33;99091.06;;;-1.67;77.59
35489;BME280;21602;55.670;37.578;2023-01-29T06:21:01;99090.41;;;-1.69;77.61
35489;BME280;21602;55.670;37.578;2023-01-29T06:23:27;99076.69;;;-1.71;77.82
35489;BME280;21602;55.670;37.578;2023-01-29T06:25:57;99086.16;;;-1.70;77.94
35489;BME280;21602;55.670;37.578;2023-01-29T06:28:23;99071.75;;;-1.74;77.90
35489;BME280;21602;55.670;37.578;2023-01-29T06:30:49;99064.88;;;-1.83;78.02
35489;BME280;21602;55.670;37.578;2023-01-29T06:33:14;99061.91;;;-1.88;78.25
35489;BME280;21602;55.670;37.578;2023-01-29T06:35:40;99074.00;;;-1.87;78.25
35489;BME280;21602;55.670;37.578;2023-01-29T06:38:06;99069.78;;;-1.80;78.30
35489;BME280;21602;55.670;37.578;2023-01-29T06:40:32;99064.06;;;-1.75;78.16
35489;BME280;21602;55.670;37.578;2023-01-29T06:42:59;99058.66;;;-1.74;78.14
35489;BME280;21602;55.670;37.578;2023-01-29T06:45:25;99063.09;;;-1.74;78.07
35489;BME280;21602;55.670;37.578;2023-01-29T06:47:50;99067.16;;;-1.72;77.98
35489;BME280;21602;55.670;37.578;2023-01-29T06:50:17;99066.69;;;-1.67;78.22
35489;BME280;21602;55.670;37.578;2023-01-29T06:52:42;99064.56;;;-1.64;77.97
35489;BME280;21602;55.670;37.578;2023-01-29T06:55:08;99064.88;;;-1.67;77.95
35489;BME280;21602;55.670;37.578;2023-01-29T06:57:34;99062.13;;;-1.65;77.65
35489;BME280;21602;55.670;37.578;2023-01-29T07:00:00;99049.03;;;-1.65;77.83
35489;BME280;21602;55.670;37.578;2023-01-29T07:02:26;99059.97;;;-1.62;77.95
35489;BME280;21602;55.670;37.578;2023-01-29T07:04:51;99040.53;;;-1.59;77.64
35489;BME280;21602;55.670;37.578;2023-01-29T07:07:17;99040.69;;;-1.52;77.74
35489;BME280;21602;55.670;37.578;2023-01-29T07:09:43;99039.22;;;-1.47;77.78
35489;BME280;21602;55.670;37.578;2023-01-29T07:12:10;99036.44;;;-1.53;77.52
35489;BME280;21602;55.670;37.578;2023-01-29T07:14:36;99029.56;;;-1.55;77.30
35489;BME280;21602;55.670;37.578;2023-01-29T07:17:02;99025.81;;;-1.60;77.02
35489;BME280;21602;55.670;37.578;2023-01-29T07:19:28;99032.50;;;-1.58;77.11
35489;BME280;21602;55.670;37.578;2023-01-29T07:21:54;99032.50;;;-1.49;77.32
35489;BME280;21602;55.670;37.578;2023-01-29T07:24:22;99034.81;;;-1.46;76.92
35489;BME280;21602;55.670;37.578;2023-01-29T07:26:48;99042.97;;;-1.41;76.90
35489;BME280;21602;55.670;37.578;2023-01-29T07:29:14;99037.09;;;-1.35;77.00
35489;BME280;21602;55.670;37.578;2023-01-29T07:31:40;99030.22;;;-1.28;76.92
35489;BME280;21602;55.670;37.578;2023-01-29T07:34:06;99029.06;;;-1.34;76.35
35489;BME280;21602;55.670;37.578;2023-01-29T07:36:31;99026.59;;;-1.35;76.76
35489;BME280;21602;55.670;37.578;2023-01-29T07:38:57;99023.81;;;-1.34;76.61
35489;BME280;21602;55.670;37.578;2023-01-29T07:41:23;99035.94;;;-1.33;76.67
35489;BME280;21602;55.670;37.578;2023-01-29T07:43:48;99032.16;;;-1.30;76.58
35489;BME280;21602;55.670;37.578;2023-01-29T07:46:14;99024.97;;;-1.28;76.80
35489;BME280;21602;55.670;37.578;2023-01-29T07:48:40;99024.94;;;-1.20;76.70
35489;BME280;21602;55.670;37.578;2023-01-29T07:51:06;99020.38;;;-1.26;76.68
35489;BME280;21602;55.670;37.578;2023-01-29T07:53:32;99020.69;;;-1.21;76.64
35489;BME280;21602;55.670;37.578;2023-01-29T07:55:58;99010.53;;;-1.08;76.69
35489;BME280;21602;55.670;37.578;2023-01-29T07:58:23;99007.22;;;-1.01;76.03
35489;BME280;21602;55.670;37.578;2023-01-29T08:00:49;99000.19;;;-0.93;76.05
35489;BME280;21602;55.670;37.578;2023-01-29T08:03:17;98991.69;;;-0.95;75.81
35489;BME280;21602;55.670;37.578;2023-01-29T08:05:44;98995.56;;;-0.91;75.80
35489;BME280;21602;55.670;37.578;2023-01-29T08:08:12;98992.28;;;-0.85;75.79
35489;BME280;21602;55.670;37.578;2023-01-29T08:10:39;98998.16;;;-0.74;75.42
35489;BME280;21602;55.670;37.578;2023-01-29T08:13:05;99000.91;;;-0.68;75.31
35489;BME280;21602;55.670;37.578;2023-01-29T08:15:32;99006.94;;;-0.59;75.09
35489;BME280;21602;55.670;37.578;2023-01-29T08:18:00;98988.06;;;-0.55;75.17
35489;BME280;21602;55.670;37.578;2023-01-29T08:20:26;98981.06;;;-0.62;74.86
35489;BME280;21602;55.670;37.578;2023-01-29T08:22:59;98973.69;;;-0.67;74.74
35489;BME280;21602;55.670;37.578;2023-01-29T08:25:25;98974.03;;;-0.62;74.58
35489;BME280;21602;55.670;37.578;2023-01-29T08:27:51;98980.38;;;-0.56;74.73
35489;BME280;21602;55.670;37.578;2023-01-29T08:30:17;98987.25;;;-0.55;74.44
35489;BME280;21602;55.670;37.578;2023-01-29T08:32:43;98982.34;;;-0.58;73.59
35489;BME280;21602;55.670;37.578;2023-01-29T08:35:09;98971.66;;;-0.48;73.69
35489;BME280;21602;55.670;37.578;2023-01-29T08:37:35;98973.31;;;-0.47;73.59
35489;BME280;21602;55.670;37.578;2023-01-29T08:40:01;98966.78;;;-0.52;73.18
35489;BME280;21602;55.670;37.578;2023-01-29T08:42:29;98975.28;;;-0.58;73.27
35489;BME280;21602;55.670;37.578;2023-01-29T08:44:55;98979.31;;;-0.70;72.94
35489;BME280;21602;55.670;37.578;2023-01-29T08:47:21;98983.72;;;-0.70;73.18
35489;BME280;21602;55.670;37.578;2023-01-29T08:49:46;98978.59;;;-0.64;73.20
35489;BME280;21602;55.670;37.578;2023-01-29T08:52:12;98979.59;;;-0.65;72.81
35489;BME280;21602;55.670;37.578;2023-01-29T08:54:38;98973.38;;;-0.64;72.83
35489;BME280;21602;55.670;37.578;2023-01-29T08:57:04;98968.31;;;-0.65;72.40
35489;BME280;21602;55.670;37.578;2023-01-29T08:59:31;98969.97;;;-0.72;72.03
35489;BME280;21602;55.670;37.578;2023-01-29T09:01:57;98969.16;;;-0.73;72.29
35489;BME280;21602;55.670;37.578;2023-01-29T09:04:22;98968.13;;;-0.64;72.40
35489;BME280;21602;55.670;37.578;2023-01-29T09:06:48;98958.94;;;-0.60;72.15
35489;BME280;21602;55.670;37.578;2023-01-29T09:09:14;98955.03;;;-0.72;71.91
35489;BME280;21602;55.670;37.578;2023-01-29T09:11:40;98953.41;;;-0.73;71.70
35489;BME280;21602;55.670;37.578;2023-01-29T09:14:06;98952.28;;;-0.70;72.04
35489;BME280;21602;55.670;37.578;2023-01-29T09:16:32;98953.38;;;-0.65;71.89
35489;BME280;21602;55.670;37.578;2023-01-29T09:19:01;98960.06;;;-0.62;72.05
35489;BME280;21602;55.670;37.578;2023-01-29T09:21:26;98963.22;;;-0.67;71.78
35489;BME280;21602;55.670;37.578;2023-01-29T09:23:52;98965.72;;;-0.73;71.71
35489;BME280;21602;55.670;37.578;2023-01-29T09:26:18;98956.06;;;-0.81;71.82
35489;BME280;21602;55.670;37.578;2023-01-29T09:28:44;98953.00;;;-0.85;72.02
35489;BME280;21602;55.670;37.578;2023-01-29T09:31:09;98949.38;;;-0.84;71.97
35489;BME280;21602;55.670;37.578;2023-01-29T09:33:35;98948.06;;;-0.80;71.80
35489;BME280;21602;55.670;37.578;2023-01-29T09:36:02;98949.88;;;-0.88;71.36
35489;BME280;21602;55.670;37.578;2023-01-29T09:38:28;98932.66;;;-0.83;71.60
35489;BME280;21602;55.670;37.578;2023-01-29T09:43:23;98922.06;;;-0.89;71.65
35489;BME280;21602;55.670;37.578;2023-01-29T09:46:05;98911.88;;;-0.84;71.22
35489;BME280;21602;55.670;37.578;2023-01-29T09:48:37;98918.09;;;-0.85;71.53
35489;BME280;21602;55.670;37.578;2023-01-29T09:51:06;98918.41;;;-0.80;71.39
35489;BME280;21602;55.670;37.578;2023-01-29T09:56:53;98920.03;;;-0.79;71.60
35489;BME280;21602;55.670;37.578;2023-01-29T09:59:23;98917.53;;;-0.72;71.76
35489;BME280;21602;55.670;37.578;2023-01-29T10:21:01;98887.25;;;-0.75;71.44
35489;BME280;21602;55.670;37.578;2023-01-29T10:23:36;98878.41;;;-0.74;71.56
35489;BME280;21602;55.670;37.578;2023-01-29T10:26:03;98873.97;;;-0.73;71.61
35489;BME280;21602;55.670;37.578;2023-01-29T10:31:08;98850.84;;;-0.70;71.60
35489;BME280;21602;55.670;37.578;2023-01-29T10:33:42;98841.00;;;-0.68;71.65
35489;BME280;21602;55.670;37.578;2023-01-29T10:36:20;98836.06;;;-0.63;71.33
35489;BME280;21602;55.670;37.578;2023-01-29T10:38:49;98820.63;;;-0.58;71.19
35489;BME280;21602;55.670;37.578;2023-01-29T10:41:26;98827.81;;;-0.52;71.19
35489;BME280;21602;55.670;37.578;2023-01-29T10:46:37;98813.63;;;-0.42;71.11
35489;BME280;21602;55.670;37.578;2023-01-29T10:49:17;98815.59;;;-0.44;70.91
35489;BME280;21602;55.670;37.578;2023-01-29T10:55:11;98803.50;;;-0.45;71.26
35489;BME280;21602;55.670;37.578;2023-01-29T11:00:37;98790.72;;;-0.48;71.27
35489;BME280;21602;55.670;37.578;2023-01-29T11:03:25;98791.25;;;-0.53;71.44
35489;BME280;21602;55.670;37.578;2023-01-29T11:09:34;98796.44;;;-0.68;71.89
35489;BME280;21602;55.670;37.578;2023-01-29T11:11:57;98793.25;;;-0.78;72.08
35489;BME280;21602;55.670;37.578;2023-01-29T11:14:31;98777.69;;;-0.80;72.11
35489;BME280;21602;55.670;37.578;2023-01-29T11:17:01;98777.50;;;-0.78;72.33
35489;BME280;21602;55.670;37.578;2023-01-29T11:19:37;98773.38;;;-0.72;72.38
35489;BME280;21602;55.670;37.578;2023-01-29T11:22:03;98773.22;;;-0.71;72.18
35489;BME280;21602;55.670;37.578;2023-01-29T11:24:32;98778.47;;;-0.71;72.13
35489;BME280;21602;55.670;37.578;2023-01-29T11:26:58;98783.34;;;-0.68;72.34
35489;BME280;21602;55.670;37.578;2023-01-29T11:29:36;98783.47;;;-0.61;72.29
35489;BME280;21602;55.670;37.578;2023-01-29T11:32:31;98787.53;;;-0.59;72.21
35489;BME280;21602;55.670;37.578;2023-01-29T11:37:45;98777.16;;;-0.52;72.00
35489;BME280;21602;55.670;37.578;2023-01-29T11:42:49;98765.03;;;-0.53;72.10
35489;BME280;21602;55.670;37.578;2023-01-29T11:45:25;98756.00;;;-0.50;71.98
35489;BME280;21602;55.670;37.578;2023-01-29T11:47:57;98759.06;;;-0.62;72.03
35489;BME280;21602;55.670;37.578;2023-01-29T11:50:29;98749.09;;;-0.66;72.48
35489;BME280;21602;55.670;37.578;2023-01-29T11:52:58;98757.50;;;-0.71;72.45
35489;BME280;21602;55.670;37.578;2023-01-29T11:55:27;98753.06;;;-0.70;72.96
35489;BME280;21602;55.670;37.578;2023-01-29T11:58:05;98757.41;;;-0.63;72.98
35489;BME280;21602;55.670;37.578;2023-01-29T12:00:33;98752.34;;;-0.64;72.76
35489;BME280;21602;55.670;37.578;2023-01-29T12:05:27;98755.25;;;-0.82;73.40
35489;BME280;21602;55.670;37.578;2023-01-29T12:07:55;98749.22;;;-0.83;73.20
35489;BME280;21602;55.670;37.578;2023-01-29T12:10:39;98744.50;;;-0.87;73.51
35489;BME280;21602;55.670;37.578;2023-01-29T12:15:38;98750.84;;;-0.82;73.58
35489;BME280;21602;55.670;37.578;2023-01-29T12:18:35;98747.41;;;-0.82;73.73
35489;BME280;21602;55.670;37.578;2023-01-29T12:21:09;98737.50;;;-0.72;74.03
35489;BME280;21602;55.670;37.578;2023-01-29T12:24:00;98741.63;;;-0.55;73.70
35489;BME280;21602;55.670;37.578;2023-01-29T12:26:43;98740.63;;;-0.54;73.36
35489;BME280;21602;55.670;37.578;2023-01-29T12:34:56;98737.53;;;-0.57;73.61
35489;BME280;21602;55.670;37.578;2023-01-29T12:40:11;98735.81;;;-0.65;73.88
35489;BME280;21602;55.670;37.578;2023-01-29T12:42:41;98738.78;;;-0.68;74.35
35489;BME280;21602;55.670;37.578;2023-01-29T12:45:21;98742.72;;;-0.72;74.20
35489;BME280;21602;55.670;37.578;2023-01-29T12:47:51;98740.91;;;-0.71;74.37
35489;BME280;21602;55.670;37.578;2023-01-29T12:55:30;98740.59;;;-0.91;75.16
35489;BME280;21602;55.670;37.578;2023-01-29T12:57:59;98730.47;;;-0.94;75.50
35489;BME280;21602;55.670;37.578;2023-01-29T13:00:33;98735.44;;;-0.99;75.71
35489;BME280;21602;55.670;37.578;2023-01-29T13:08:10;98733.66;;;-1.07;76.23
35489;BME280;21602;55.670;37.578;2023-01-29T13:10:46;98735.47;;;-1.08;76.28
35489;BME280;21602;55.670;37.578;2023-01-29T13:15:51;98727.94;;;-1.11;77.20
35489;BME280;21602;55.670;37.578;2023-01-29T13:21:00;98735.88;;;-0.96;76.92
35489;BME280;21602;55.670;37.578;2023-01-29T13:23:42;98721.66;;;-1.01;76.74
35489;BME280;21602;55.670;37.578;2023-01-29T13:26:09;98728.59;;;-1.09;76.96
35489;BME280;21602;55.670;37.578;2023-01-29T13:28:36;98715.00;;;-1.04;76.66
35489;BME280;21602;55.670;37.578;2023-01-29T13:31:23;98715.13;;;-1.06;76.91
35489;BME280;21602;55.670;37.578;2023-01-29T13:34:05;98722.19;;;-1.06;77.30
35489;BME280;21602;55.670;37.578;2023-01-29T13:36:32;98720.84;;;-1.02;76.84
35489;BME280;21602;55.670;37.578;2023-01-29T13:39:04;98715.38;;;-0.92;76.86
35489;BME280;21602;55.670;37.578;2023-01-29T13:41:41;98706.81;;;-0.86;76.92
35489;BME280;21602;55.670;37.578;2023-01-29T13:44:19;98713.34;;;-0.82;76.98
35489;BME280;21602;55.670;37.578;2023-01-29T13:47:09;98706.47;;;-0.83;77.19
35489;BME280;21602;55.670;37.578;2023-01-29T13:49:52;98712.53;;;-0.83;77.06
35489;BME280;21602;55.670;37.578;2023-01-29T13:52:34;98700.94;;;-0.88;77.27
35489;BME280;21602;55.670;37.578;2023-01-29T14:05:43;98703.50;;;-1.03;77.75
35489;BME280;21602;55.670;37.578;2023-01-29T14:08:42;98697.63;;;-1.05;78.25
35489;BME280;21602;55.670;37.578;2023-01-29T14:13:42;98695.13;;;-0.98;78.33
35489;BME280;21602;55.670;37.578;2023-01-29T14:18:47;98685.94;;;-0.94;78.46
35489;BME280;21602;55.670;37.578;2023-01-29T14:21:30;98684.56;;;-0.90;78.21
35489;BME280;21602;55.670;37.578;2023-01-29T14:24:16;98686.38;;;-0.91;78.33
35489;BME280;21602;55.670;37.578;2023-01-29T14:26:44;98678.06;;;-0.94;78.41
35489;BME280;21602;55.670;37.578;2023-01-29T14:34:13;98669.47;;;-1.03;78.93
35489;BME280;21602;55.670;37.578;2023-01-29T14:36:41;98664.56;;;-1.06;79.16
35489;BME280;21602;55.670;37.578;2023-01-29T14:39:24;98667.19;;;-1.06;79.56
35489;BME280;21602;55.670;37.578;2023-01-29T14:41:53;98677.84;;;-1.08;79.45
35489;BME280;21602;55.670;37.578;2023-01-29T14:49:56;98674.56;;;-1.10;79.72
35489;BME280;21602;55.670;37.578;2023-01-29T14:52:31;98673.75;;;-1.10;80.22
35489;BME280;21602;55.670;37.578;2023-01-29T14:55:04;98682.56;;;-1.03;80.24
35489;BME280;21602;55.670;37.578;2023-01-29T14:57:32;98671.41;;;-1.05;80.13
35489;BME280;21602;55.670;37.578;2023-01-29T15:00:02;98664.56;;;-1.06;79.94
35489;BME280;21602;55.670;37.578;2023-01-29T15:02:43;98663.94;;;-1.08;80.53
35489;BME280;21602;55.670;37.578;2023-01-29T15:05:15;98662.75;;;-1.06;80.60
35489;BME280;21602;55.670;37.578;2023-01-29T15:07:55;98664.56;;;-1.06;80.50
35489;BME280;21602;55.670;37.578;2023-01-29T15:10:48;98661.66;;;-1.11;80.70
35489;BME280;21602;55.670;37.578;2023-01-29T15:14:12;98660.84;;;-1.12;81.09
35489;BME280;21602;55.670;37.578;2023-01-29T15:16:53;98664.56;;;-1.06;80.89
35489;BME280;21602;55.670;37.578;2023-01-29T15:19:27;98669.97;;;-1.08;80.92
35489;BME280;21602;55.670;37.578;2023-01-29T15:22:21;98665.09;;;-1.11;81.15
35489;BME280;21602;55.670;37.578;2023-01-29T15:25:17;98656.59;;;-1.13;81.30
35489;BME280;21602;55.670;37.578;2023-01-29T15:27:44;98659.03;;;-1.11;81.36
35489;BME280;21602;55.670;37.578;2023-01-29T15:30:17;98664.75;;;-1.08;81.57
35489;BME280;21602;55.670;37.578;2023-01-29T15:32:47;98668.00;;;-1.06;81.71
35489;BME280;21602;55.670;37.578;2023-01-29T15:38:17;98668.00;;;-1.06;82.26
35489;BME280;21602;55.670;37.578;2023-01-29T15:43:30;98673.75;;;-1.10;82.97
35489;BME280;21602;55.670;37.578;2023-01-29T15:46:21;98664.47;;;-1.13;83.22
35489;BME280;21602;55.670;37.578;2023-01-29T15:48:49;98658.41;;;-1.13;83.18
35489;BME280;21602;55.670;37.578;2023-01-29T15:51:20;98656.47;;;-1.19;82.73
35489;BME280;21602;55.670;37.578;2023-01-29T15:54:09;98655.06;;;-1.30;83.85
35489;BME280;21602;55.670;37.578;2023-01-29T15:56:43;98660.03;;;-1.35;84.14
35489;BME280;21602;55.670;37.578;2023-01-29T15:59:25;98652.47;;;-1.30;83.95
35489;BME280;21602;55.670;37.578;2023-01-29T16:01:52;98646.88;;;-1.27;83.73